createdAt,value
2023-02-18T00:02:19.280Z,96101.73
2023-02-18T00:04:47.910Z,96094.39
2023-02-18T00:07:16.656Z,96087.66
2023-02-18T00:09:45.295Z,96082.90
2023-02-18T00:12:13.852Z,96085.23
2023-02-18T00:14:42.452Z,96078.98
2023-02-18T00:17:13.748Z,96087.47
2023-02-18T00:19:42.348Z,96076.47
2023-02-18T00:22:10.951Z,96080.66
2023-02-18T00:24:40.224Z,96061.23
2023-02-18T00:27:09.711Z,96062.36
2023-02-18T00:29:38.412Z,96054.03
2023-02-18T00:32:07.118Z,96049.69
2023-02-18T00:34:35.814Z,96055.27
2023-02-18T00:37:05.075Z,96049.96
2023-02-18T00:39:33.698Z,96050.36
2023-02-18T00:42:02.335Z,96046.47
2023-02-18T00:44:30.991Z,96045.98
2023-02-18T00:46:59.681Z,96039.95
2023-02-18T00:49:28.366Z,96039.33
2023-02-18T00:51:57.036Z,96037.72
2023-02-18T00:54:26.013Z,96040.59
2023-02-18T00:56:57.583Z,96041.00
2023-02-18T00:59:26.175Z,96030.40
2023-02-18T01:01:54.802Z,96036.20
2023-02-18T01:04:23.523Z,96039.55
2023-02-18T01:06:52.541Z,96045.44
2023-02-18T01:09:21.279Z,96035.44
2023-02-18T01:11:49.985Z,96041.29
2023-02-18T01:14:18.700Z,96033.75
2023-02-18T01:16:47.223Z,96040.19
2023-02-18T01:19:15.980Z,96030.80
2023-02-18T01:21:44.667Z,96030.08
2023-02-18T01:24:13.242Z,96034.81
2023-02-18T01:26:41.810Z,96031.72
2023-02-18T01:29:10.405Z,96036.66
2023-02-18T01:31:39.217Z,96034.45
2023-02-18T01:34:07.925Z,96030.27
2023-02-18T01:36:36.584Z,96019.12
2023-02-18T01:39:07.245Z,96024.79
2023-02-18T01:41:35.984Z,96023.44
2023-02-18T01:44:19.554Z,96029.02
2023-02-18T01:46:49.285Z,96028.97
2023-02-18T01:49:23.617Z,96033.31
2023-02-18T01:51:55.226Z,96041.04
2023-02-18T01:54:32.695Z,96038.30
2023-02-18T01:57:16.479Z,96044.20
2023-02-18T01:59:48.045Z,96046.34
2023-02-18T02:02:19.732Z,96048.44
2023-02-18T02:04:49.201Z,96047.91
2023-02-18T02:07:20.686Z,96051.48
2023-02-18T02:09:51.858Z,96037.56
2023-02-18T02:12:44.781Z,96029.17
2023-02-18T02:15:48.170Z,96028.09
2023-02-18T02:18:46.920Z,96020.63
2023-02-18T02:21:18.496Z,96034.89
2023-02-18T02:24:11.464Z,96040.15
2023-02-18T02:27:07.085Z,96041.17
2023-02-18T02:29:50.719Z,96045.98
2023-02-18T02:32:25.309Z,96039.31
2023-02-18T02:35:08.954Z,96032.50
2023-02-18T02:37:49.216Z,96031.08
2023-02-18T02:40:27.808Z,96021.77
2023-02-18T02:43:26.189Z,96021.33
2023-02-18T02:45:57.953Z,96009.44
2023-02-18T02:48:58.755Z,96013.64
2023-02-18T02:51:33.226Z,96010.83
2023-02-18T02:54:20.100Z,96008.98
2023-02-18T02:56:49.433Z,96020.48
2023-02-18T02:59:24.084Z,96025.88
2023-02-18T03:02:07.679Z,96027.31
2023-02-18T03:05:00.183Z,96038.22
2023-02-18T03:07:37.649Z,96038.61
2023-02-18T03:10:33.557Z,96034.23
2023-02-18T03:13:21.530Z,96025.64
2023-02-18T03:16:05.053Z,96024.02
2023-02-18T03:18:42.832Z,96023.30
2023-02-18T03:21:26.374Z,96030.36
2023-02-18T03:24:06.544Z,96033.94
2023-02-18T03:26:37.593Z,96042.40
2023-02-18T03:29:08.531Z,96049.21
2023-02-18T03:31:40.049Z,96056.16
2023-02-18T03:34:14.488Z,96070.05
2023-02-18T03:36:44.149Z,96071.85
2023-02-18T03:39:18.097Z,96075.30
2023-02-18T03:41:47.411Z,96076.97
2023-02-18T03:44:16.264Z,96075.52
2023-02-18T03:46:46.471Z,96071.72
2023-02-18T03:49:16.321Z,96070.78
2023-02-18T03:51:45.701Z,96076.74
2023-02-18T03:54:14.786Z,96080.16
2023-02-18T03:56:44.120Z,96083.27
2023-02-18T03:59:14.376Z,96083.33
2023-02-18T04:01:43.064Z,96083.72
2023-02-18T04:04:11.737Z,96077.16
2023-02-18T04:06:40.549Z,96071.08
2023-02-18T04:09:09.502Z,96065.01
2023-02-18T04:11:40.377Z,96073.22
2023-02-18T04:14:09.805Z,96011.91
2023-02-18T04:16:38.536Z,96069.61
2023-02-18T04:19:07.321Z,96063.19
2023-02-18T04:21:36.405Z,96065.15
2023-02-18T04:24:05.057Z,96044.52
2023-02-18T04:26:33.718Z,96049.83
2023-02-18T04:29:02.591Z,96043.45
2023-02-18T04:31:31.390Z,96048.65
2023-02-18T04:34:00.185Z,96046.20
2023-02-18T04:36:30.710Z,96051.64
2023-02-18T04:39:00.006Z,96048.28
2023-02-18T04:41:28.653Z,96052.22
2023-02-18T04:43:59.010Z,96042.33
2023-02-18T04:46:27.840Z,96047.05
2023-02-18T04:48:56.579Z,96051.23
2023-02-18T04:51:25.429Z,96052.97
2023-02-18T04:53:54.265Z,96062.83
2023-02-18T04:56:22.916Z,96058.70
2023-02-18T04:58:51.594Z,96066.40
2023-02-18T05:01:20.356Z,96058.83
2023-02-18T05:03:48.993Z,96070.95
2023-02-18T05:06:17.650Z,96071.83
2023-02-18T05:08:46.495Z,96076.63
2023-02-18T05:11:15.262Z,96073.53
2023-02-18T05:13:44.080Z,96066.73
2023-02-18T05:16:13.282Z,96059.67
2023-02-18T05:18:43.665Z,96058.17
2023-02-18T05:21:12.280Z,96056.69
2023-02-18T05:23:40.998Z,96045.16
2023-02-18T05:26:10.041Z,96044.45
2023-02-18T05:28:38.850Z,96053.48
2023-02-18T05:31:07.541Z,96055.63
2023-02-18T05:33:36.648Z,96062.39
2023-02-18T05:36:05.825Z,96055.73
2023-02-18T05:38:34.443Z,96053.10
2023-02-18T05:41:03.690Z,96051.61
2023-02-18T05:43:34.034Z,96065.57
2023-02-18T05:46:08.883Z,96059.73
2023-02-18T05:48:42.453Z,96062.21
2023-02-18T05:54:15.835Z,96061.39
2023-02-18T05:56:44.497Z,96074.97
2023-02-18T05:59:13.415Z,96073.55
2023-02-18T06:01:44.685Z,96080.53
2023-02-18T06:04:14.598Z,96081.84
2023-02-18T06:06:46.405Z,96082.70
2023-02-18T06:09:16.708Z,96080.93
2023-02-18T06:11:50.447Z,96068.84
2023-02-18T06:14:53.857Z,96067.94
2023-02-18T06:17:24.226Z,96078.64
2023-02-18T06:19:54.590Z,96071.98
2023-02-18T06:22:26.508Z,96067.39
2023-02-18T06:28:25.416Z,96069.51
2023-02-18T06:30:57.068Z,96061.48
2023-02-18T06:33:26.911Z,96056.44
2023-02-18T06:36:04.004Z,96056.98
2023-02-18T06:38:32.852Z,96050.70
2023-02-18T06:41:01.979Z,96061.23
2023-02-18T06:43:34.324Z,96061.23
2023-02-18T06:46:03.275Z,96065.05
2023-02-18T06:48:32.891Z,96059.60
2023-02-18T06:51:11.314Z,96060.20
2023-02-18T06:53:48.652Z,96060.20
2023-02-18T06:59:49.836Z,96066.43
2023-02-18T07:12:35.299Z,96063.88
2023-02-18T07:18:44.775Z,96057.03
2023-02-18T07:21:17.408Z,96053.95
2023-02-18T07:26:49.111Z,96043.02
2023-02-18T07:29:20.789Z,96045.22
2023-02-18T07:35:21.756Z,96045.02
2023-02-18T07:37:53.875Z,96063.69
2023-02-18T07:44:06.358Z,96067.02
2023-02-18T09:09:18.954Z,96036.09
2023-02-18T09:12:00.895Z,96027.63
2023-02-18T09:14:36.924Z,96035.06
2023-02-18T09:17:10.009Z,96039.61
2023-02-18T09:19:42.054Z,96034.59
2023-02-18T09:22:12.128Z,96032.72
2023-02-18T09:24:44.067Z,96035.02
2023-02-18T09:27:12.916Z,96038.98
2023-02-18T09:29:42.782Z,96039.14
2023-02-18T09:32:20.008Z,96019.29
2023-02-18T09:38:16.960Z,96017.28
2023-02-18T09:40:56.076Z,96010.91
2023-02-18T09:43:34.569Z,96010.88
2023-02-18T09:46:14.136Z,96000.31
2023-02-18T09:49:01.198Z,96000.91
2023-02-18T09:51:22.317Z,96005.47
2023-02-18T09:53:53.294Z,96003.45
2023-02-18T09:56:34.552Z,96014.27
2023-02-18T09:59:10.481Z,95998.91
2023-02-18T10:01:50.501Z,95994.39
2023-02-18T10:04:25.430Z,95989.70
2023-02-18T10:07:02.613Z,95992.09
2023-02-18T10:09:42.482Z,95979.97
2023-02-18T10:12:33.673Z,95981.87
2023-02-18T10:18:41.958Z,95975.21
2023-02-18T10:21:21.272Z,95977.72
2023-02-18T10:24:20.089Z,95971.50
2023-02-18T10:26:51.463Z,95968.50
2023-02-18T10:29:40.179Z,95958.27
2023-02-18T10:35:57.011Z,95956.41
2023-02-18T10:42:09.093Z,95945.42
2023-02-18T10:45:03.095Z,95933.66
2023-02-18T10:47:42.944Z,95929.82
2023-02-18T10:53:16.492Z,95923.56
2023-02-18T10:56:08.938Z,95922.17
2023-02-18T10:58:44.145Z,95918.98
2023-02-18T11:01:22.612Z,95914.91
2023-02-18T11:03:54.983Z,95906.21
2023-02-18T11:20:15.689Z,95901.39
2023-02-18T11:39:28.505Z,95849.08
2023-02-18T11:44:22.880Z,95852.37
2023-02-18T11:52:30.150Z,95828.45
2023-02-18T11:55:08.668Z,95827.84
2023-02-18T11:57:40.503Z,95827.84
2023-02-18T12:06:58.128Z,95806.94
2023-02-18T12:17:19.081Z,95798.68
2023-02-18T12:20:06.685Z,95797.13
2023-02-18T12:22:57.610Z,95806.16
2023-02-18T12:25:32.243Z,95793.69
2023-02-18T12:28:18.824Z,95796.16
2023-02-18T12:31:00.789Z,95787.89
2023-02-18T12:33:56.014Z,95787.89
2023-02-18T12:40:29.704Z,95773.52
2023-02-18T12:46:30.515Z,95757.59
2023-02-18T12:49:14.102Z,95752.80
2023-02-18T12:52:07.045Z,95743.41
2023-02-18T12:55:08.805Z,95740.14
2023-02-18T12:57:46.567Z,95739.77
2023-02-18T13:00:38.064Z,95739.91
2023-02-18T13:03:42.960Z,95739.90
2023-02-18T13:06:44.360Z,95744.50
2023-02-18T13:09:31.694Z,95748.75
2023-02-18T13:12:05.281Z,95750.33
2023-02-18T13:15:06.177Z,95748.67
2023-02-18T13:18:02.152Z,95747.30
2023-02-18T13:27:54.357Z,95736.23
2023-02-18T13:34:20.600Z,95749.70
2023-02-18T13:37:01.108Z,95736.86
2023-02-18T13:39:37.393Z,95751.83
2023-02-18T13:42:21.402Z,95739.55
2023-02-18T13:45:00.919Z,95737.27
2023-02-18T13:47:44.989Z,95746.06
2023-02-18T13:50:23.685Z,95747.97
2023-02-18T13:52:54.896Z,95742.39
2023-02-18T13:55:29.485Z,95742.79
2023-02-18T14:08:40.833Z,95737.69
2023-02-18T14:11:26.830Z,95734.25
2023-02-18T14:14:28.638Z,95733.69
2023-02-18T14:17:43.431Z,95732.68
2023-02-18T14:20:15.334Z,95735.75
2023-02-18T14:26:44.512Z,95744.35
2023-02-18T14:33:04.108Z,95734.97
2023-02-18T14:42:22.144Z,95749.67
2023-02-18T14:45:16.698Z,95750.78
2023-02-18T14:51:35.143Z,95746.89
2023-02-18T14:54:28.275Z,95751.52
2023-02-18T14:57:29.201Z,95743.83
2023-02-18T15:00:18.484Z,95736.55
2023-02-18T15:23:26.685Z,95735.38
2023-02-18T15:26:06.816Z,95729.92
2023-02-18T15:28:45.362Z,95727.97
2023-02-18T15:34:28.420Z,95727.08
2023-02-18T15:37:07.498Z,95720.32
2023-02-18T15:52:54.250Z,95711.80
2023-02-18T15:55:26.293Z,95705.41
2023-02-18T15:58:09.570Z,95704.56
2023-02-18T16:00:47.289Z,95698.20
2023-02-18T16:03:19.069Z,95702.75
2023-02-18T16:05:47.990Z,95679.42
2023-02-18T16:08:20.229Z,95707.45
2023-02-18T16:10:52.010Z,95702.25
2023-02-18T16:13:21.270Z,95701.53
2023-02-18T16:15:53.918Z,95701.11
2023-02-18T16:18:30.321Z,95703.10
2023-02-18T16:21:06.266Z,95711.23
2023-02-18T16:23:37.953Z,95710.63
2023-02-18T16:26:22.158Z,95703.33
2023-02-18T16:28:53.454Z,95705.21
2023-02-18T16:31:23.211Z,95665.46
2023-02-18T16:33:52.011Z,95715.05
2023-02-18T16:36:22.784Z,95712.99
2023-02-18T16:38:51.608Z,95713.83
2023-02-18T16:41:22.816Z,95717.13
2023-02-18T16:43:51.836Z,95718.20
2023-02-18T16:46:30.507Z,95728.52
2023-02-18T16:49:01.569Z,95731.45
2023-02-18T16:51:35.218Z,95726.03
2023-02-18T16:54:09.992Z,95730.04
2023-02-18T17:09:36.394Z,95715.50
2023-02-18T17:12:48.714Z,95720.25
2023-02-18T17:25:23.345Z,95710.67
2023-02-18T17:28:16.847Z,95710.30
2023-02-18T17:30:51.107Z,95714.23
2023-02-18T17:33:24.236Z,95705.09
2023-02-18T17:36:10.049Z,95707.72
2023-02-18T17:39:03.036Z,95710.39
2023-02-18T17:51:38.245Z,95697.61
2023-02-18T18:00:37.424Z,95687.23
2023-02-18T18:24:25.472Z,95685.16
2023-02-18T18:30:57.354Z,95690.96
2023-02-18T18:43:37.684Z,95694.30
2023-02-18T18:46:08.242Z,95703.50
2023-02-18T18:48:48.160Z,95696.66
2023-02-18T18:51:27.839Z,95700.07
2023-02-18T18:54:20.648Z,95686.37
2023-02-18T19:16:07.713Z,95673.55
2023-02-18T19:18:56.939Z,95668.59
2023-02-18T19:21:48.270Z,95678.02
2023-02-18T19:37:53.104Z,95689.23
2023-02-18T19:44:21.085Z,95695.85
2023-02-18T19:50:44.126Z,95693.69
2023-02-18T19:55:32.732Z,95692.91
2023-02-18T19:56:20.793Z,95696.83
2023-02-18T20:05:51.208Z,95692.17
2023-02-18T20:19:10.378Z,95698.66
2023-02-18T20:24:27.532Z,95694.83
2023-02-18T20:33:51.551Z,95695.88
2023-02-18T20:36:32.691Z,95696.18
2023-02-18T20:39:15.779Z,95697.20
2023-02-18T20:45:08.381Z,95694.42
2023-02-18T20:47:44.062Z,95693.66
2023-02-18T20:50:18.872Z,95689.91
2023-02-18T21:04:02.086Z,95699.51
2023-02-18T21:06:34.964Z,95686.27
2023-02-18T21:13:08.081Z,95682.72
2023-02-18T21:15:42.759Z,95681.03
2023-02-18T21:22:02.220Z,95681.27
2023-02-18T21:24:32.662Z,95690.65
2023-02-18T21:27:02.833Z,95679.72
2023-02-18T21:29:33.463Z,95684.16
2023-02-18T21:32:08.307Z,95682.16
2023-02-18T21:34:37.186Z,95686.57
2023-02-18T21:37:13.494Z,95676.87
2023-02-18T21:39:43.181Z,95671.76
2023-02-18T21:42:12.027Z,95665.03
2023-02-18T21:44:42.787Z,95674.39
2023-02-18T21:47:17.895Z,95668.62
2023-02-18T21:49:48.440Z,95676.88
2023-02-18T21:52:19.502Z,95667.08
2023-02-18T21:54:49.482Z,95673.33
2023-02-18T21:57:24.333Z,95668.70
2023-02-18T22:06:19.023Z,95659.16
2023-02-18T22:08:50.839Z,95644.86
2023-02-18T22:20:51.600Z,95647.61
2023-02-18T22:23:20.529Z,95637.29
2023-02-18T22:25:49.340Z,95648.60
2023-02-18T22:31:47.974Z,95649.14
2023-02-18T22:34:19.579Z,95651.50
2023-02-18T22:40:05.441Z,95653.73
2023-02-18T22:45:28.297Z,95639.38
2023-02-18T22:51:31.951Z,95637.05
2023-02-18T22:54:02.223Z,95648.03
2023-02-18T22:56:39.641Z,95644.34
2023-02-18T22:59:09.774Z,95642.25
2023-02-18T23:05:09.805Z,95638.50
2023-02-18T23:07:44.724Z,95636.95
2023-02-18T23:13:51.941Z,95626.19
2023-02-18T23:26:02.888Z,95626.34
2023-02-18T23:28:33.530Z,95628.97
2023-02-18T23:34:54.189Z,95631.63
2023-02-18T23:37:24.748Z,95630.66
2023-02-18T23:39:53.592Z,95628.13
2023-02-18T23:42:28.066Z,95631.92
2023-02-18T23:44:58.316Z,95630.12
2023-02-18T23:47:27.343Z,95630.59
2023-02-18T23:49:56.152Z,95627.95
2023-02-18T23:52:27.591Z,95628.30
2023-02-18T23:54:58.381Z,95621.72
2023-02-18T23:57:28.983Z,95623.95
2023-02-18T23:59:57.778Z,95623.18
